首页
METAR-TAF:

METAR-TAF

机场 :

罗德兹, 法国

纬度: 44-24N, 经度: 002-29E, 海拔: 581米

当前天气观测

该预报发布于41分钟前的20:00 UTC
风速6节,风向西
温度 5°C
湿度 100%
气压 1006 hPa
能见度10公里或以上
少量云层高于700英尺
散云层高于3400英尺
多云层高于5200英尺

METAR: LFCR 122000Z AUTO 27006KT 9999 FEW007 SCT034 BKN052 05/05 Q1006 TEMPO 3000 SHRA BKN004 SCT015TCU

时间: 21:41 (20:41 UTC)

预报

该预报发布于51分钟前的19:50 UTC
预报有效从12日的 19点(UTC)到 13日的 18点(UTC)
风速5节,风向西北
能见度10公里或以上
多云层高于2000英尺
几率 40% :
短暂存在
从 12日的 19点(UTC)到 12日的 22点(UTC)
能見度: 3000
多云层高于400英尺
散云层高于1500英尺, 塔状积云.
阵雨
成为
从 12日的 22点(UTC)到 12日的 24点(UTC)
能見度: 4000
多云层高于300英尺
轻雾
短暂存在
从 13日的 00点(UTC)到 13日的 07点(UTC)
风速2节,风向多变
能見度: 0500
成为
从 13日的 08点(UTC)到 13日的 10点(UTC)
能见度10公里或以上
多云层高于600英尺
成为
从 13日的 10点(UTC)到 13日的 12点(UTC)
散云层高于1200英尺

TAF: LFCR 121950Z 1219/1318 31005KT 9999 BKN020 PROB40 TEMPO 1219/1222 3000 SHRA BKN004 SCT015TCU BECMG 1222/1224 4000 BR BKN003 TEMPO 1300/1307 VRB02KT 0500 FG VV/// BECMG 1308/1310 9999 NSW BKN006 BECMG 1310/1312 SCT012

超过4000个机场的气象观测和天气预报(METAR&TAF报告)。

可查询的气象台以黄色和红色小点在地图上表示。

将鼠标移到小点上方,可查看气象台名称。

然后点击查看天气观测和预报。

如需切换地图:点击带黑十字的绿色按钮放大地图;点击带横线的绿色按钮缩小地图;或者点击绿色箭头查看邻近地区的地图。


METAR-TAF: